首页
METAR-TAF:

METAR-TAF

机场 :

热那亚-克里斯托弗·哥伦布机场

热那亚, 意大利

纬度: 44-25N, 经度: 008-51E, 海拔: 2米

当前天气观测

该预报发布于16分钟前的16:20 UTC
风速4节,风向
温度 12°C
湿度 50%
气压 1012 hPa
能见度10公里或以上
1500米以下无云,无积雨云

METAR: LIMJ 021620Z 19004KT CAVOK 12/02 Q1012

时间: 18:36 (16:36 UTC)

预报

该预报发布于5小时和36分钟前的11:00 UTC
预报有效从02日的 12点(UTC)到 03日的 12点(UTC)
风速8节,风向
能见度10公里或以上
1500米以下无云,无积雨云
成为
从 02日的 16点(UTC)到 02日的 18点(UTC)
风速10节,风向北转东北

TAF: LIMJ 021100Z 0212/0312 18008KT CAVOK BECMG 0216/0218 03010KT

超过4000个机场的气象观测和天气预报(METAR&TAF报告)。

可查询的气象台以黄色和红色小点在地图上表示。

将鼠标移到小点上方,可查看气象台名称。

然后点击查看天气观测和预报。

如需切换地图:点击带黑十字的绿色按钮放大地图;点击带横线的绿色按钮缩小地图;或者点击绿色箭头查看邻近地区的地图。


METAR-TAF: